sensor_id;sensor_type;location;lat;lon;timestamp;temperature;humidity
22153;DHT22;11242;50.536;12.688;2024-01-30T00:00:46;0.50;99.90
22153;DHT22;11242;50.536;12.688;2024-01-30T00:03:11;0.50;99.90
22153;DHT22;11242;50.536;12.688;2024-01-30T00:05:37;0.60;99.90
22153;DHT22;11242;50.536;12.688;2024-01-30T00:08:03;0.60;99.90
22153;DHT22;11242;50.536;12.688;2024-01-30T00:10:28;0.70;99.90
22153;DHT22;11242;50.536;12.688;2024-01-30T00:12:54;0.80;99.90
22153;DHT22;11242;50.536;12.688;2024-01-30T00:15:19;0.70;99.90
22153;DHT22;11242;50.536;12.688;2024-01-30T00:17:45;0.70;99.90
22153;DHT22;11242;50.536;12.688;2024-01-30T00:20:11;1.20;99.90
22153;DHT22;11242;50.536;12.688;2024-01-30T00:22:36;1.60;99.90
22153;DHT22;11242;50.536;12.688;2024-01-30T00:25:02;2.10;99.90
22153;DHT22;11242;50.536;12.688;2024-01-30T00:27:27;2.30;99.90
22153;DHT22;11242;50.536;12.688;2024-01-30T00:29:53;2.30;99.90
22153;DHT22;11242;50.536;12.688;2024-01-30T00:32:18;2.10;99.90
22153;DHT22;11242;50.536;12.688;2024-01-30T00:34:44;2.10;99.90
22153;DHT22;11242;50.536;12.688;2024-01-30T00:37:10;2.10;99.90
22153;DHT22;11242;50.536;12.688;2024-01-30T00:39:35;2.20;99.90
22153;DHT22;11242;50.536;12.688;2024-01-30T00:42:01;2.30;99.90
22153;DHT22;11242;50.536;12.688;2024-01-30T00:44:27;2.20;99.90
22153;DHT22;11242;50.536;12.688;2024-01-30T00:46:53;2.00;99.90
22153;DHT22;11242;50.536;12.688;2024-01-30T00:49:18;2.00;99.90
22153;DHT22;11242;50.536;12.688;2024-01-30T00:51:44;2.00;99.90
22153;DHT22;11242;50.536;12.688;2024-01-30T00:54:09;1.80;99.90
22153;DHT22;11242;50.536;12.688;2024-01-30T00:56:35;1.80;99.90
22153;DHT22;11242;50.536;12.688;2024-01-30T00:59:00;1.80;99.90
22153;DHT22;11242;50.536;12.688;2024-01-30T01:01:26;1.80;99.90
22153;DHT22;11242;50.536;12.688;2024-01-30T01:03:51;1.80;99.90
22153;DHT22;11242;50.536;12.688;2024-01-30T01:06:17;1.90;99.90
22153;DHT22;11242;50.536;12.688;2024-01-30T01:08:42;2.00;99.90
22153;DHT22;11242;50.536;12.688;2024-01-30T01:11:08;1.90;99.90
22153;DHT22;11242;50.536;12.688;2024-01-30T01:13:33;1.80;99.90
22153;DHT22;11242;50.536;12.688;2024-01-30T01:15:59;1.70;99.90
22153;DHT22;11242;50.536;12.688;2024-01-30T01:18:25;1.60;99.90
22153;DHT22;11242;50.536;12.688;2024-01-30T01:20:50;1.60;99.90
22153;DHT22;11242;50.536;12.688;2024-01-30T01:23:16;1.50;99.90
22153;DHT22;11242;50.536;12.688;2024-01-30T01:25:41;1.40;99.90
22153;DHT22;11242;50.536;12.688;2024-01-30T01:28:07;1.40;99.90
22153;DHT22;11242;50.536;12.688;2024-01-30T01:30:32;1.50;99.90
22153;DHT22;11242;50.536;12.688;2024-01-30T01:32:58;1.70;99.90
22153;DHT22;11242;50.536;12.688;2024-01-30T01:35:26;1.80;99.90
22153;DHT22;11242;50.536;12.688;2024-01-30T01:37:53;1.90;99.90
22153;DHT22;11242;50.536;12.688;2024-01-30T01:40:25;1.90;99.90
22153;DHT22;11242;50.536;12.688;2024-01-30T01:42:51;1.80;99.90
22153;DHT22;11242;50.536;12.688;2024-01-30T01:45:21;1.70;99.90
22153;DHT22;11242;50.536;12.688;2024-01-30T01:47:51;1.90;99.90
22153;DHT22;11242;50.536;12.688;2024-01-30T01:50:17;2.00;99.90
22153;DHT22;11242;50.536;12.688;2024-01-30T01:52:46;2.00;99.90
22153;DHT22;11242;50.536;12.688;2024-01-30T01:55:13;1.80;99.90
22153;DHT22;11242;50.536;12.688;2024-01-30T01:57:40;1.80;99.90
22153;DHT22;11242;50.536;12.688;2024-01-30T02:00:06;1.70;99.90
22153;DHT22;11242;50.536;12.688;2024-01-30T02:02:35;1.70;99.90
22153;DHT22;11242;50.536;12.688;2024-01-30T02:05:01;1.70;99.90
22153;DHT22;11242;50.536;12.688;2024-01-30T02:07:28;1.80;99.90
22153;DHT22;11242;50.536;12.688;2024-01-30T02:09:54;1.80;99.90
22153;DHT22;11242;50.536;12.688;2024-01-30T02:12:19;1.80;99.90
22153;DHT22;11242;50.536;12.688;2024-01-30T02:14:48;1.70;99.90
22153;DHT22;11242;50.536;12.688;2024-01-30T02:17:16;1.60;99.90
22153;DHT22;11242;50.536;12.688;2024-01-30T02:19:42;1.50;99.90
22153;DHT22;11242;50.536;12.688;2024-01-30T02:22:08;1.50;99.90
22153;DHT22;11242;50.536;12.688;2024-01-30T02:24:34;1.50;99.90
22153;DHT22;11242;50.536;12.688;2024-01-30T02:27:00;1.50;99.90
22153;DHT22;11242;50.536;12.688;2024-01-30T02:29:25;1.60;99.90
22153;DHT22;11242;50.536;12.688;2024-01-30T02:31:51;1.70;99.90
22153;DHT22;11242;50.536;12.688;2024-01-30T02:34:18;1.70;99.90
22153;DHT22;11242;50.536;12.688;2024-01-30T02:36:44;1.60;99.90
22153;DHT22;11242;50.536;12.688;2024-01-30T02:39:10;1.50;99.90
22153;DHT22;11242;50.536;12.688;2024-01-30T02:41:36;1.40;99.90
22153;DHT22;11242;50.536;12.688;2024-01-30T02:44:03;1.20;99.90
22153;DHT22;11242;50.536;12.688;2024-01-30T02:46:29;1.00;99.90
22153;DHT22;11242;50.536;12.688;2024-01-30T02:48:54;0.80;99.90
22153;DHT22;11242;50.536;12.688;2024-01-30T02:51:20;1.60;99.90
22153;DHT22;11242;50.536;12.688;2024-01-30T02:53:45;2.70;99.90
22153;DHT22;11242;50.536;12.688;2024-01-30T02:56:11;3.50;99.90
22153;DHT22;11242;50.536;12.688;2024-01-30T02:58:39;3.80;99.30
22153;DHT22;11242;50.536;12.688;2024-01-30T03:01:04;3.90;96.90
22153;DHT22;11242;50.536;12.688;2024-01-30T03:03:30;4.10;94.90
22153;DHT22;11242;50.536;12.688;2024-01-30T03:05:55;4.00;95.00
22153;DHT22;11242;50.536;12.688;2024-01-30T03:08:21;4.10;93.90
22153;DHT22;11242;50.536;12.688;2024-01-30T03:10:46;4.10;94.40
22153;DHT22;11242;50.536;12.688;2024-01-30T03:13:12;4.10;93.60
22153;DHT22;11242;50.536;12.688;2024-01-30T03:15:38;4.00;94.00
22153;DHT22;11242;50.536;12.688;2024-01-30T03:18:03;3.90;94.40
22153;DHT22;11242;50.536;12.688;2024-01-30T03:20:29;3.70;94.90
22153;DHT22;11242;50.536;12.688;2024-01-30T03:22:55;3.80;95.30
22153;DHT22;11242;50.536;12.688;2024-01-30T03:25:21;3.70;95.60
22153;DHT22;11242;50.536;12.688;2024-01-30T03:27:46;3.40;98.10
22153;DHT22;11242;50.536;12.688;2024-01-30T03:30:12;3.10;99.90
22153;DHT22;11242;50.536;12.688;2024-01-30T03:32:37;2.60;99.90
22153;DHT22;11242;50.536;12.688;2024-01-30T03:35:03;2.10;99.90
22153;DHT22;11242;50.536;12.688;2024-01-30T03:37:29;1.60;99.90
22153;DHT22;11242;50.536;12.688;2024-01-30T03:39:55;1.10;99.90
22153;DHT22;11242;50.536;12.688;2024-01-30T03:42:20;0.60;99.90
22153;DHT22;11242;50.536;12.688;2024-01-30T03:44:46;0.30;99.90
22153;DHT22;11242;50.536;12.688;2024-01-30T03:47:11;0.10;99.90
22153;DHT22;11242;50.536;12.688;2024-01-30T03:49:37;-0.10;99.90
22153;DHT22;11242;50.536;12.688;2024-01-30T03:52:03;-0.30;99.90
22153;DHT22;11242;50.536;12.688;2024-01-30T03:54:29;-0.40;99.90
22153;DHT22;11242;50.536;12.688;2024-01-30T03:56:54;-0.50;99.90
22153;DHT22;11242;50.536;12.688;2024-01-30T03:59:20;-0.60;99.90
22153;DHT22;11242;50.536;12.688;2024-01-30T04:01:50;-0.60;99.90
22153;DHT22;11242;50.536;12.688;2024-01-30T04:04:16;-0.60;99.90
22153;DHT22;11242;50.536;12.688;2024-01-30T04:06:42;-0.70;99.90
22153;DHT22;11242;50.536;12.688;2024-01-30T04:09:07;-0.70;99.90
22153;DHT22;11242;50.536;12.688;2024-01-30T04:11:33;-0.60;99.90
22153;DHT22;11242;50.536;12.688;2024-01-30T04:13:58;-0.40;99.90
22153;DHT22;11242;50.536;12.688;2024-01-30T04:16:24;-0.20;99.90
22153;DHT22;11242;50.536;12.688;2024-01-30T04:18:51;0.10;99.90
22153;DHT22;11242;50.536;12.688;2024-01-30T04:21:17;0.30;99.90
22153;DHT22;11242;50.536;12.688;2024-01-30T04:23:42;0.40;99.90
22153;DHT22;11242;50.536;12.688;2024-01-30T04:26:08;0.30;99.90
22153;DHT22;11242;50.536;12.688;2024-01-30T04:28:33;0.20;99.90
22153;DHT22;11242;50.536;12.688;2024-01-30T04:30:59;0.10;99.90
22153;DHT22;11242;50.536;12.688;2024-01-30T04:33:24;0.10;99.90
22153;DHT22;11242;50.536;12.688;2024-01-30T04:35:50;0.30;99.90
22153;DHT22;11242;50.536;12.688;2024-01-30T04:38:15;0.30;99.90
22153;DHT22;11242;50.536;12.688;2024-01-30T04:40:41;0.40;99.90
22153;DHT22;11242;50.536;12.688;2024-01-30T04:43:07;0.30;99.90
22153;DHT22;11242;50.536;12.688;2024-01-30T04:45:32;0.10;99.90
22153;DHT22;11242;50.536;12.688;2024-01-30T04:47:58;-0.10;99.90
22153;DHT22;11242;50.536;12.688;2024-01-30T04:50:23;-0.30;99.90
22153;DHT22;11242;50.536;12.688;2024-01-30T04:52:49;-0.50;99.90
22153;DHT22;11242;50.536;12.688;2024-01-30T04:55:15;-0.70;99.90
22153;DHT22;11242;50.536;12.688;2024-01-30T04:57:40;-0.80;99.90
22153;DHT22;11242;50.536;12.688;2024-01-30T05:00:06;-0.90;99.90
22153;DHT22;11242;50.536;12.688;2024-01-30T05:02:32;-1.00;99.90
22153;DHT22;11242;50.536;12.688;2024-01-30T05:04:57;-1.20;99.90
22153;DHT22;11242;50.536;12.688;2024-01-30T05:07:24;-1.20;99.90
22153;DHT22;11242;50.536;12.688;2024-01-30T05:09:50;-1.20;99.90
22153;DHT22;11242;50.536;12.688;2024-01-30T05:12:15;-1.20;99.90
22153;DHT22;11242;50.536;12.688;2024-01-30T05:14:41;-1.20;99.90
22153;DHT22;11242;50.536;12.688;2024-01-30T05:17:07;-1.30;99.90
22153;DHT22;11242;50.536;12.688;2024-01-30T05:19:34;-1.30;99.90
22153;DHT22;11242;50.536;12.688;2024-01-30T05:22:00;-1.10;99.90
22153;DHT22;11242;50.536;12.688;2024-01-30T05:24:25;-1.00;99.90
22153;DHT22;11242;50.536;12.688;2024-01-30T05:26:51;-1.00;99.90
22153;DHT22;11242;50.536;12.688;2024-01-30T05:29:17;-1.00;99.90
22153;DHT22;11242;50.536;12.688;2024-01-30T05:31:42;-0.90;99.90
22153;DHT22;11242;50.536;12.688;2024-01-30T05:34:08;-0.70;99.90
22153;DHT22;11242;50.536;12.688;2024-01-30T05:36:34;-0.60;99.90
22153;DHT22;11242;50.536;12.688;2024-01-30T05:39:00;-0.40;99.90
22153;DHT22;11242;50.536;12.688;2024-01-30T05:41:25;-0.30;99.90
22153;DHT22;11242;50.536;12.688;2024-01-30T05:43:51;-0.30;99.90
22153;DHT22;11242;50.536;12.688;2024-01-30T05:46:17;-0.10;99.90
22153;DHT22;11242;50.536;12.688;2024-01-30T05:48:42;0.10;99.90
22153;DHT22;11242;50.536;12.688;2024-01-30T05:51:08;0.10;99.90
22153;DHT22;11242;50.536;12.688;2024-01-30T05:53:34;0.10;99.90
22153;DHT22;11242;50.536;12.688;2024-01-30T05:56:02;-0.10;99.90
22153;DHT22;11242;50.536;12.688;2024-01-30T05:58:27;-0.10;99.90
22153;DHT22;11242;50.536;12.688;2024-01-30T06:00:53;-0.30;99.90
22153;DHT22;11242;50.536;12.688;2024-01-30T06:03:19;-0.50;99.90
22153;DHT22;11242;50.536;12.688;2024-01-30T06:05:44;-0.70;99.90
22153;DHT22;11242;50.536;12.688;2024-01-30T06:08:10;-0.90;99.90
22153;DHT22;11242;50.536;12.688;2024-01-30T06:10:35;-1.00;99.90
22153;DHT22;11242;50.536;12.688;2024-01-30T06:13:01;-1.20;99.90
22153;DHT22;11242;50.536;12.688;2024-01-30T06:15:27;-1.20;99.90
22153;DHT22;11242;50.536;12.688;2024-01-30T06:17:55;-1.20;99.90
22153;DHT22;11242;50.536;12.688;2024-01-30T06:20:20;-1.10;99.90
22153;DHT22;11242;50.536;12.688;2024-01-30T06:22:46;-1.10;99.90
22153;DHT22;11242;50.536;12.688;2024-01-30T06:25:11;-1.00;99.90
22153;DHT22;11242;50.536;12.688;2024-01-30T06:27:37;-0.90;99.90
22153;DHT22;11242;50.536;12.688;2024-01-30T06:30:04;-0.60;99.90
22153;DHT22;11242;50.536;12.688;2024-01-30T06:32:30;-0.60;99.90
22153;DHT22;11242;50.536;12.688;2024-01-30T06:35:00;-0.70;99.90
22153;DHT22;11242;50.536;12.688;2024-01-30T06:37:25;-0.70;99.90
22153;DHT22;11242;50.536;12.688;2024-01-30T06:39:51;-0.80;99.90
22153;DHT22;11242;50.536;12.688;2024-01-30T06:42:18;-0.80;99.90
22153;DHT22;11242;50.536;12.688;2024-01-30T06:44:43;-0.80;99.90
22153;DHT22;11242;50.536;12.688;2024-01-30T06:47:09;-0.60;99.90
22153;DHT22;11242;50.536;12.688;2024-01-30T06:49:35;-0.70;99.90
22153;DHT22;11242;50.536;12.688;2024-01-30T06:52:06;-0.50;99.90
22153;DHT22;11242;50.536;12.688;2024-01-30T06:54:32;-0.30;99.90
22153;DHT22;11242;50.536;12.688;2024-01-30T06:56:58;-0.20;99.90
22153;DHT22;11242;50.536;12.688;2024-01-30T06:59:24;-0.10;99.90
22153;DHT22;11242;50.536;12.688;2024-01-30T07:01:50;-0.10;99.90
22153;DHT22;11242;50.536;12.688;2024-01-30T07:04:15;0.00;99.90
22153;DHT22;11242;50.536;12.688;2024-01-30T07:06:41;0.10;99.90
22153;DHT22;11242;50.536;12.688;2024-01-30T07:09:08;0.30;99.90
22153;DHT22;11242;50.536;12.688;2024-01-30T07:11:34;0.40;99.90
22153;DHT22;11242;50.536;12.688;2024-01-30T07:13:59;0.50;99.90
22153;DHT22;11242;50.536;12.688;2024-01-30T07:16:25;0.70;99.90
22153;DHT22;11242;50.536;12.688;2024-01-30T07:18:51;0.90;99.90
22153;DHT22;11242;50.536;12.688;2024-01-30T07:21:16;0.90;99.90
22153;DHT22;11242;50.536;12.688;2024-01-30T07:23:42;1.10;99.90
22153;DHT22;11242;50.536;12.688;2024-01-30T07:26:08;1.30;99.90
22153;DHT22;11242;50.536;12.688;2024-01-30T07:28:35;1.40;99.90
22153;DHT22;11242;50.536;12.688;2024-01-30T07:31:01;1.40;99.90
22153;DHT22;11242;50.536;12.688;2024-01-30T07:33:27;1.40;99.90
22153;DHT22;11242;50.536;12.688;2024-01-30T07:35:53;1.60;99.90
22153;DHT22;11242;50.536;12.688;2024-01-30T07:38:19;1.70;99.90
22153;DHT22;11242;50.536;12.688;2024-01-30T07:40:44;1.80;99.90
22153;DHT22;11242;50.536;12.688;2024-01-30T07:43:10;1.80;99.90
22153;DHT22;11242;50.536;12.688;2024-01-30T07:45:36;1.90;99.90
22153;DHT22;11242;50.536;12.688;2024-01-30T07:48:03;2.00;99.90
22153;DHT22;11242;50.536;12.688;2024-01-30T07:50:28;2.20;99.90
22153;DHT22;11242;50.536;12.688;2024-01-30T07:52:56;2.40;99.90
22153;DHT22;11242;50.536;12.688;2024-01-30T07:55:22;3.20;99.90
22153;DHT22;11242;50.536;12.688;2024-01-30T07:57:51;4.20;99.90
22153;DHT22;11242;50.536;12.688;2024-01-30T08:00:18;5.00;99.90
22153;DHT22;11242;50.536;12.688;2024-01-30T08:02:45;5.30;99.90
22153;DHT22;11242;50.536;12.688;2024-01-30T08:05:10;5.70;99.90
22153;DHT22;11242;50.536;12.688;2024-01-30T08:07:37;6.30;99.90
22153;DHT22;11242;50.536;12.688;2024-01-30T08:10:02;7.00;99.90
22153;DHT22;11242;50.536;12.688;2024-01-30T08:12:29;7.80;98.50
22153;DHT22;11242;50.536;12.688;2024-01-30T08:14:54;7.70;94.40
22153;DHT22;11242;50.536;12.688;2024-01-30T08:17:20;7.70;93.60
22153;DHT22;11242;50.536;12.688;2024-01-30T08:19:45;7.60;92.40
22153;DHT22;11242;50.536;12.688;2024-01-30T08:22:12;7.50;92.00
22153;DHT22;11242;50.536;12.688;2024-01-30T08:24:37;7.00;93.30
22153;DHT22;11242;50.536;12.688;2024-01-30T08:27:03;6.40;94.80
22153;DHT22;11242;50.536;12.688;2024-01-30T08:29:30;5.90;96.10
22153;DHT22;11242;50.536;12.688;2024-01-30T08:31:56;5.50;96.70
22153;DHT22;11242;50.536;12.688;2024-01-30T08:34:21;5.50;96.40
22153;DHT22;11242;50.536;12.688;2024-01-30T08:36:47;5.70;95.40
22153;DHT22;11242;50.536;12.688;2024-01-30T08:39:13;6.00;92.50
22153;DHT22;11242;50.536;12.688;2024-01-30T08:41:38;6.20;94.30
22153;DHT22;11242;50.536;12.688;2024-01-30T08:44:04;6.50;83.00
22153;DHT22;11242;50.536;12.688;2024-01-30T08:46:30;7.00;75.30
22153;DHT22;11242;50.536;12.688;2024-01-30T08:48:56;7.40;66.40
22153;DHT22;11242;50.536;12.688;2024-01-30T08:51:21;7.80;61.00
22153;DHT22;11242;50.536;12.688;2024-01-30T08:53:47;8.20;60.10
22153;DHT22;11242;50.536;12.688;2024-01-30T08:56:13;8.20;62.40
22153;DHT22;11242;50.536;12.688;2024-01-30T08:58:38;8.10;62.80
22153;DHT22;11242;50.536;12.688;2024-01-30T09:01:05;8.00;66.40
22153;DHT22;11242;50.536;12.688;2024-01-30T09:03:31;7.80;67.80
22153;DHT22;11242;50.536;12.688;2024-01-30T09:05:57;7.60;70.60
22153;DHT22;11242;50.536;12.688;2024-01-30T09:08:22;7.50;72.50
22153;DHT22;11242;50.536;12.688;2024-01-30T09:10:48;7.40;72.20
22153;DHT22;11242;50.536;12.688;2024-01-30T09:13:15;7.60;69.20
22153;DHT22;11242;50.536;12.688;2024-01-30T09:15:42;7.90;65.70
22153;DHT22;11242;50.536;12.688;2024-01-30T09:18:07;7.90;66.50
22153;DHT22;11242;50.536;12.688;2024-01-30T09:20:33;8.00;67.00
22153;DHT22;11242;50.536;12.688;2024-01-30T09:22:58;8.10;63.10
22153;DHT22;11242;50.536;12.688;2024-01-30T09:25:24;8.30;63.00
22153;DHT22;11242;50.536;12.688;2024-01-30T09:27:50;8.50;61.90
22153;DHT22;11242;50.536;12.688;2024-01-30T09:30:15;8.70;60.50
22153;DHT22;11242;50.536;12.688;2024-01-30T09:32:42;8.90;61.50
22153;DHT22;11242;50.536;12.688;2024-01-30T09:35:08;9.00;62.20
22153;DHT22;11242;50.536;12.688;2024-01-30T09:37:34;9.00;61.50
22153;DHT22;11242;50.536;12.688;2024-01-30T09:39:59;9.10;61.50
22153;DHT22;11242;50.536;12.688;2024-01-30T09:44:58;9.30;62.30
22153;DHT22;11242;50.536;12.688;2024-01-30T09:47:24;9.40;63.10
22153;DHT22;11242;50.536;12.688;2024-01-30T09:49:50;9.40;63.30
22153;DHT22;11242;50.536;12.688;2024-01-30T09:52:16;9.50;64.20
22153;DHT22;11242;50.536;12.688;2024-01-30T09:54:42;9.60;64.60
22153;DHT22;11242;50.536;12.688;2024-01-30T09:57:08;9.70;64.00
22153;DHT22;11242;50.536;12.688;2024-01-30T09:59:34;9.80;65.30
22153;DHT22;11242;50.536;12.688;2024-01-30T10:02:00;9.90;64.90
22153;DHT22;11242;50.536;12.688;2024-01-30T10:04:26;10.00;65.80
22153;DHT22;11242;50.536;12.688;2024-01-30T10:06:51;10.10;66.00
22153;DHT22;11242;50.536;12.688;2024-01-30T10:09:17;10.20;66.40
22153;DHT22;11242;50.536;12.688;2024-01-30T10:11:42;10.30;65.90
22153;DHT22;11242;50.536;12.688;2024-01-30T10:14:08;10.30;66.40
22153;DHT22;11242;50.536;12.688;2024-01-30T10:16:35;10.30;67.00
22153;DHT22;11242;50.536;12.688;2024-01-30T10:19:00;10.40;68.60
22153;DHT22;11242;50.536;12.688;2024-01-30T10:21:26;10.40;68.00
22153;DHT22;11242;50.536;12.688;2024-01-30T10:23:52;10.30;69.70
22153;DHT22;11242;50.536;12.688;2024-01-30T10:26:17;10.40;70.00
22153;DHT22;11242;50.536;12.688;2024-01-30T10:28:43;10.40;74.60
22153;DHT22;11242;50.536;12.688;2024-01-30T10:31:09;10.30;73.50
22153;DHT22;11242;50.536;12.688;2024-01-30T10:33:34;10.40;75.40
22153;DHT22;11242;50.536;12.688;2024-01-30T10:36:02;10.40;77.50
22153;DHT22;11242;50.536;12.688;2024-01-30T10:38:31;10.50;78.40
22153;DHT22;11242;50.536;12.688;2024-01-30T10:40:58;10.60;81.30
22153;DHT22;11242;50.536;12.688;2024-01-30T10:43:31;10.60;82.70
22153;DHT22;11242;50.536;12.688;2024-01-30T10:46:06;10.60;83.40
22153;DHT22;11242;50.536;12.688;2024-01-30T10:48:36;10.70;83.80
22153;DHT22;11242;50.536;12.688;2024-01-30T10:51:07;10.70;84.30
22153;DHT22;11242;50.536;12.688;2024-01-30T10:53:33;10.80;84.80
22153;DHT22;11242;50.536;12.688;2024-01-30T10:55:59;10.80;85.30
22153;DHT22;11242;50.536;12.688;2024-01-30T10:58:27;10.70;85.90
22153;DHT22;11242;50.536;12.688;2024-01-30T11:00:53;10.80;86.30
22153;DHT22;11242;50.536;12.688;2024-01-30T11:03:19;10.80;86.60
22153;DHT22;11242;50.536;12.688;2024-01-30T11:05:50;10.80;87.00
22153;DHT22;11242;50.536;12.688;2024-01-30T11:08:23;10.90;87.20
22153;DHT22;11242;50.536;12.688;2024-01-30T11:10:49;11.10;88.40
22153;DHT22;11242;50.536;12.688;2024-01-30T11:13:15;11.10;88.20
22153;DHT22;11242;50.536;12.688;2024-01-30T11:15:41;11.10;88.00
22153;DHT22;11242;50.536;12.688;2024-01-30T11:18:07;11.10;88.20
22153;DHT22;11242;50.536;12.688;2024-01-30T11:20:33;11.20;88.40
22153;DHT22;11242;50.536;12.688;2024-01-30T11:23:01;11.30;88.60
22153;DHT22;11242;50.536;12.688;2024-01-30T11:25:31;11.30;89.00
22153;DHT22;11242;50.536;12.688;2024-01-30T11:27:57;11.40;89.70
22153;DHT22;11242;50.536;12.688;2024-01-30T11:30:24;11.40;90.00
22153;DHT22;11242;50.536;12.688;2024-01-30T11:33:01;11.30;90.70
22153;DHT22;11242;50.536;12.688;2024-01-30T11:35:26;11.30;90.90
22153;DHT22;11242;50.536;12.688;2024-01-30T11:37:52;11.30;91.10
22153;DHT22;11242;50.536;12.688;2024-01-30T11:40:19;11.30;91.20
22153;DHT22;11242;50.536;12.688;2024-01-30T11:42:45;11.30;91.40
22153;DHT22;11242;50.536;12.688;2024-01-30T11:45:12;11.30;91.60
22153;DHT22;11242;50.536;12.688;2024-01-30T11:47:38;11.40;91.70
22153;DHT22;11242;50.536;12.688;2024-01-30T11:50:04;11.40;91.60
22153;DHT22;11242;50.536;12.688;2024-01-30T11:52:33;11.40;91.80
22153;DHT22;11242;50.536;12.688;2024-01-30T11:54:59;11.40;91.60
22153;DHT22;11242;50.536;12.688;2024-01-30T11:57:27;11.40;92.00
22153;DHT22;11242;50.536;12.688;2024-01-30T11:59:52;11.40;92.20
22153;DHT22;11242;50.536;12.688;2024-01-30T12:02:18;11.40;92.40
22153;DHT22;11242;50.536;12.688;2024-01-30T12:04:44;11.30;92.30
22153;DHT22;11242;50.536;12.688;2024-01-30T12:07:10;11.30;92.60
22153;DHT22;11242;50.536;12.688;2024-01-30T12:09:35;11.30;92.60
22153;DHT22;11242;50.536;12.688;2024-01-30T12:12:01;11.30;92.70
22153;DHT22;11242;50.536;12.688;2024-01-30T12:14:27;11.40;92.60
22153;DHT22;11242;50.536;12.688;2024-01-30T12:16:52;11.40;92.40
22153;DHT22;11242;50.536;12.688;2024-01-30T12:19:22;11.40;92.40
22153;DHT22;11242;50.536;12.688;2024-01-30T12:21:54;11.40;92.40
22153;DHT22;11242;50.536;12.688;2024-01-30T12:24:20;11.50;92.30
22153;DHT22;11242;50.536;12.688;2024-01-30T12:26:45;11.40;92.30
22153;DHT22;11242;50.536;12.688;2024-01-30T12:29:11;11.50;92.20
22153;DHT22;11242;50.536;12.688;2024-01-30T12:31:36;11.70;92.20
22153;DHT22;11242;50.536;12.688;2024-01-30T12:34:02;11.70;91.80
22153;DHT22;11242;50.536;12.688;2024-01-30T12:36:29;11.80;92.10
22153;DHT22;11242;50.536;12.688;2024-01-30T12:38:56;11.70;91.90
22153;DHT22;11242;50.536;12.688;2024-01-30T12:41:22;11.70;91.90
22153;DHT22;11242;50.536;12.688;2024-01-30T12:43:53;11.70;92.00
22153;DHT22;11242;50.536;12.688;2024-01-30T12:46:19;11.70;92.00
22153;DHT22;11242;50.536;12.688;2024-01-30T12:48:44;11.70;91.60
22153;DHT22;11242;50.536;12.688;2024-01-30T12:51:10;11.60;91.40
22153;DHT22;11242;50.536;12.688;2024-01-30T12:53:36;11.60;92.00
22153;DHT22;11242;50.536;12.688;2024-01-30T12:56:01;11.60;92.30
22153;DHT22;11242;50.536;12.688;2024-01-30T12:58:27;11.60;92.30
22153;DHT22;11242;50.536;12.688;2024-01-30T13:00:53;11.50;92.20
22153;DHT22;11242;50.536;12.688;2024-01-30T13:03:19;11.50;92.20
22153;DHT22;11242;50.536;12.688;2024-01-30T13:05:45;11.60;92.30
22153;DHT22;11242;50.536;12.688;2024-01-30T13:08:10;11.70;92.20
22153;DHT22;11242;50.536;12.688;2024-01-30T13:10:36;11.70;91.90
22153;DHT22;11242;50.536;12.688;2024-01-30T13:13:01;11.70;92.00
22153;DHT22;11242;50.536;12.688;2024-01-30T13:15:28;11.70;92.40
22153;DHT22;11242;50.536;12.688;2024-01-30T13:17:53;11.70;92.40
22153;DHT22;11242;50.536;12.688;2024-01-30T13:20:19;11.60;92.70
22153;DHT22;11242;50.536;12.688;2024-01-30T13:22:47;11.60;92.80
22153;DHT22;11242;50.536;12.688;2024-01-30T13:25:14;11.60;93.00
22153;DHT22;11242;50.536;12.688;2024-01-30T13:27:40;11.50;93.10
22153;DHT22;11242;50.536;12.688;2024-01-30T13:30:07;11.50;93.40
22153;DHT22;11242;50.536;12.688;2024-01-30T13:32:34;11.50;93.60
22153;DHT22;11242;50.536;12.688;2024-01-30T13:35:00;11.60;93.90
22153;DHT22;11242;50.536;12.688;2024-01-30T13:37:25;11.60;93.90
22153;DHT22;11242;50.536;12.688;2024-01-30T13:39:51;11.60;94.20
22153;DHT22;11242;50.536;12.688;2024-01-30T13:42:16;11.50;94.40
22153;DHT22;11242;50.536;12.688;2024-01-30T13:44:42;11.40;94.80
22153;DHT22;11242;50.536;12.688;2024-01-30T13:47:09;11.30;95.20
22153;DHT22;11242;50.536;12.688;2024-01-30T13:49:35;11.30;96.00
22153;DHT22;11242;50.536;12.688;2024-01-30T13:52:00;11.20;96.60
22153;DHT22;11242;50.536;12.688;2024-01-30T13:54:26;11.10;97.60
22153;DHT22;11242;50.536;12.688;2024-01-30T13:56:51;11.00;98.80
22153;DHT22;11242;50.536;12.688;2024-01-30T13:59:17;11.00;99.80
22153;DHT22;11242;50.536;12.688;2024-01-30T14:01:48;11.10;99.90
22153;DHT22;11242;50.536;12.688;2024-01-30T14:04:14;11.10;99.90
22153;DHT22;11242;50.536;12.688;2024-01-30T14:06:40;11.00;99.90
22153;DHT22;11242;50.536;12.688;2024-01-30T14:09:06;10.80;99.90
22153;DHT22;11242;50.536;12.688;2024-01-30T14:11:31;10.80;99.90
22153;DHT22;11242;50.536;12.688;2024-01-30T14:13:57;10.70;99.90
22153;DHT22;11242;50.536;12.688;2024-01-30T14:16:23;10.70;99.90
22153;DHT22;11242;50.536;12.688;2024-01-30T14:18:50;10.60;99.90
22153;DHT22;11242;50.536;12.688;2024-01-30T14:21:15;10.60;99.90
22153;DHT22;11242;50.536;12.688;2024-01-30T14:23:41;10.60;99.90
22153;DHT22;11242;50.536;12.688;2024-01-30T14:26:06;10.70;99.90
22153;DHT22;11242;50.536;12.688;2024-01-30T14:28:32;10.60;99.90
22153;DHT22;11242;50.536;12.688;2024-01-30T14:30:57;10.70;99.90
22153;DHT22;11242;50.536;12.688;2024-01-30T14:33:23;10.80;99.90
22153;DHT22;11242;50.536;12.688;2024-01-30T14:35:48;10.70;99.90
22153;DHT22;11242;50.536;12.688;2024-01-30T14:38:14;10.70;99.90
22153;DHT22;11242;50.536;12.688;2024-01-30T14:40:40;10.60;99.90
22153;DHT22;11242;50.536;12.688;2024-01-30T14:43:05;10.60;99.90
22153;DHT22;11242;50.536;12.688;2024-01-30T14:45:31;10.60;99.90
22153;DHT22;11242;50.536;12.688;2024-01-30T14:47:58;10.50;99.90
22153;DHT22;11242;50.536;12.688;2024-01-30T14:50:24;10.50;99.90
22153;DHT22;11242;50.536;12.688;2024-01-30T14:52:49;10.40;99.90
22153;DHT22;11242;50.536;12.688;2024-01-30T14:55:15;10.40;99.90
22153;DHT22;11242;50.536;12.688;2024-01-30T14:57:40;10.30;99.90
22153;DHT22;11242;50.536;12.688;2024-01-30T15:00:08;10.20;99.90
22153;DHT22;11242;50.536;12.688;2024-01-30T15:02:34;10.10;99.90
22153;DHT22;11242;50.536;12.688;2024-01-30T15:05:00;9.90;99.90
22153;DHT22;11242;50.536;12.688;2024-01-30T15:07:26;9.90;99.90
22153;DHT22;11242;50.536;12.688;2024-01-30T15:09:53;9.80;99.90
22153;DHT22;11242;50.536;12.688;2024-01-30T15:12:18;9.70;99.90
22153;DHT22;11242;50.536;12.688;2024-01-30T15:14:44;9.50;99.90
22153;DHT22;11242;50.536;12.688;2024-01-30T15:17:17;9.40;99.90